Knox, Indiana
Current Conditions -  °F | °C
As of 6:35 AM on Saturday 25 Oct 2014 (Local Time) from KOXI Reporting Station
Clear Clear  
Wind Chill: 49°   Ceiling: Unl
Heat Index: 49°   Visibility: 2.5mi
Dew Point: 47°   Wind: 3mph
Humidity: 93%   Direction: 240°WSW
Pressure: 29.91"   Gusts: NA
Location:  41.3°N, 86.63°W
Report Text: KOXI 251135Z AUTO 24003KT 2 1/2SM CLR 09/08 A2991 RMK AO1 T00930082
Loading
Personal Weather Stations






























Interactive Weather Map
Tropical Storm Tracking
New forecast layout! Learn more

10-Day Weather Forecast

Advertisements
Track Severe Weather on mobile